createdAt,value
2019-03-26T00:00:48.322Z,82.17
2019-03-26T00:01:48.304Z,80.92
2019-03-26T00:02:48.310Z,80.61
2019-03-26T00:03:48.339Z,80.92
2019-03-26T00:04:48.278Z,80.09
2019-03-26T00:05:48.268Z,80.51
2019-03-26T00:06:48.260Z,80.65
2019-03-26T00:07:48.245Z,80.85
2019-03-26T00:08:48.241Z,81.54
2019-03-26T00:09:48.242Z,80.19
2019-03-26T00:10:48.213Z,80.44
2019-03-26T00:11:48.204Z,81.99
2019-03-26T00:12:48.194Z,81.02
2019-03-26T00:13:48.182Z,81.44
2019-03-26T00:14:48.172Z,80.51
2019-03-26T00:15:48.195Z,80.82
2019-03-26T00:16:48.227Z,81.44
2019-03-26T00:17:48.143Z,80.19
2019-03-26T00:18:48.132Z,79.99
2019-03-26T00:19:48.121Z,80.82
2019-03-26T00:20:48.107Z,80.61
2019-03-26T00:21:48.149Z,81.54
2019-03-26T00:22:48.088Z,81.54
2019-03-26T00:23:48.079Z,81.34
2019-03-26T00:24:48.067Z,82.37
2019-03-26T00:25:48.060Z,82.37
2019-03-26T00:26:48.046Z,82.20
2019-03-26T00:27:48.056Z,82.17
2019-03-26T00:28:48.023Z,82.20
2019-03-26T00:29:48.014Z,81.58
2019-03-26T00:30:48.005Z,82.20
2019-03-26T00:31:47.994Z,82.51
2019-03-26T00:32:47.982Z,82.51
2019-03-26T00:33:48.021Z,81.89
2019-03-26T00:34:47.959Z,82.31
2019-03-26T00:35:47.950Z,82.31
2019-03-26T00:36:47.940Z,82.62
2019-03-26T00:37:47.927Z,83.24
2019-03-26T00:38:47.972Z,83.14
2019-03-26T00:39:47.956Z,82.82
2019-03-26T00:40:47.899Z,83.24
2019-03-26T00:41:47.889Z,82.72
2019-03-26T00:42:47.876Z,83.03
2019-03-26T00:43:47.869Z,82.93
2019-03-26T00:44:47.857Z,82.51
2019-03-26T00:45:47.882Z,82.51
2019-03-26T00:46:47.834Z,83.34
2019-03-26T00:47:47.830Z,82.72
2019-03-26T00:48:47.812Z,82.41
2019-03-26T00:49:47.864Z,82.82
2019-03-26T00:50:47.792Z,82.82
2019-03-26T00:51:47.829Z,83.45
2019-03-26T00:52:47.770Z,82.62
2019-03-26T00:53:47.764Z,82.62
2019-03-26T00:54:47.752Z,82.62
2019-03-26T00:55:47.738Z,81.99
2019-03-26T00:56:47.728Z,81.06
2019-03-26T00:57:47.768Z,81.48
2019-03-26T00:58:47.706Z,82.31
2019-03-26T00:59:47.697Z,82.06
2019-03-26T01:00:47.687Z,81.79
2019-03-26T01:01:47.680Z,79.92
2019-03-26T01:02:47.669Z,81.27
2019-03-26T01:03:47.706Z,80.61
2019-03-26T01:04:47.645Z,80.75
2019-03-26T01:05:47.633Z,80.75
2019-03-26T01:06:47.622Z,80.54
2019-03-26T01:07:47.614Z,80.85
2019-03-26T01:08:47.603Z,80.02
2019-03-26T01:09:47.646Z,81.06
2019-03-26T01:10:47.587Z,80.23
2019-03-26T01:11:47.611Z,80.33
2019-03-26T01:12:47.558Z,79.47
2019-03-26T01:13:47.553Z,79.68
2019-03-26T01:14:47.539Z,80.61
2019-03-26T01:15:47.552Z,80.92
2019-03-26T01:16:47.516Z,80.65
2019-03-26T01:17:47.506Z,80.65
2019-03-26T01:18:47.497Z,80.44
2019-03-26T01:19:47.488Z,81.75
2019-03-26T01:20:47.478Z,82.20
2019-03-26T01:21:47.638Z,81.68
2019-03-26T01:22:47.455Z,82.10
2019-03-26T01:23:47.447Z,81.48
2019-03-26T01:24:47.440Z,81.27
2019-03-26T01:25:47.422Z,81.48
2019-03-26T01:26:47.412Z,82.41
2019-03-26T01:27:47.445Z,82.62
2019-03-26T01:28:47.390Z,82.68
2019-03-26T01:29:47.380Z,83.03
2019-03-26T01:30:47.372Z,83.59
2019-03-26T01:31:47.362Z,83.80
2019-03-26T01:32:47.350Z,84.69
2019-03-26T01:33:47.392Z,84.83
2019-03-26T01:34:47.329Z,84.31
2019-03-26T01:35:47.316Z,85.14
2019-03-26T01:36:47.309Z,85.66
2019-03-26T01:37:47.294Z,86.35
2019-03-26T01:38:47.288Z,86.04
2019-03-26T01:39:47.326Z,86.39
2019-03-26T01:40:47.265Z,86.39
2019-03-26T01:41:47.252Z,86.29
2019-03-26T01:42:47.244Z,86.39
2019-03-26T01:43:47.239Z,86.60
2019-03-26T01:44:47.226Z,86.80
2019-03-26T01:45:47.227Z,86.60
2019-03-26T01:46:47.202Z,87.63
2019-03-26T01:47:47.193Z,87.63
2019-03-26T01:48:47.182Z,87.63
2019-03-26T01:49:47.170Z,87.53
2019-03-26T01:50:47.161Z,87.53
2019-03-26T01:51:47.205Z,87.01
2019-03-26T01:52:47.141Z,87.32
2019-03-26T01:53:47.128Z,87.88
2019-03-26T01:54:47.119Z,87.74
2019-03-26T01:55:47.109Z,88.05
2019-03-26T01:56:47.096Z,87.74
2019-03-26T01:57:47.140Z,87.74
2019-03-26T01:58:47.077Z,87.68
2019-03-26T01:59:47.064Z,87.74
2019-03-26T02:00:47.054Z,87.74
2019-03-26T02:01:47.047Z,87.84
2019-03-26T02:02:47.038Z,88.09
2019-03-26T02:03:47.074Z,88.05
2019-03-26T02:04:59.178Z,87.74
2019-03-26T02:05:48.000Z,88.26
2019-03-26T02:06:46.994Z,88.30
2019-03-26T02:07:46.978Z,88.26
2019-03-26T02:08:46.972Z,87.95
2019-03-26T02:09:47.017Z,87.74
2019-03-26T02:10:46.953Z,87.68
2019-03-26T02:11:46.939Z,87.78
2019-03-26T02:12:48.645Z,87.47
2019-03-26T02:13:46.921Z,87.78
2019-03-26T02:14:46.907Z,87.68
2019-03-26T02:15:46.943Z,87.88
2019-03-26T02:16:46.889Z,87.99
2019-03-26T02:17:46.879Z,87.63
2019-03-26T02:18:46.872Z,87.74
2019-03-26T02:19:46.856Z,88.09
2019-03-26T02:20:46.917Z,87.88
2019-03-26T02:21:46.997Z,87.63
2019-03-26T02:22:46.825Z,87.22
2019-03-26T02:23:46.815Z,86.39
2019-03-26T02:24:46.808Z,86.49
2019-03-26T02:25:46.792Z,86.91
2019-03-26T02:26:46.790Z,86.60
2019-03-26T02:27:46.824Z,86.18
2019-03-26T02:28:46.760Z,86.08
2019-03-26T02:29:46.752Z,85.97
2019-03-26T02:30:46.743Z,86.08
2019-03-26T02:31:46.735Z,86.39
2019-03-26T02:32:46.720Z,86.39
2019-03-26T02:33:46.755Z,86.12
2019-03-26T02:34:46.701Z,85.50
2019-03-26T02:35:46.691Z,86.33
2019-03-26T02:36:46.681Z,86.12
2019-03-26T02:37:46.665Z,86.12
2019-03-26T02:38:46.658Z,85.19
2019-03-26T02:39:46.700Z,84.77
2019-03-26T02:40:46.658Z,84.77
2019-03-26T02:41:46.625Z,85.50
2019-03-26T02:42:46.626Z,85.50
2019-03-26T02:43:46.606Z,86.68
2019-03-26T02:44:46.596Z,86.02
2019-03-26T02:45:46.638Z,86.02
2019-03-26T02:46:46.619Z,86.33
2019-03-26T02:47:46.568Z,86.02
2019-03-26T02:48:46.557Z,86.36
2019-03-26T02:49:46.542Z,86.26
2019-03-26T02:50:46.548Z,86.68
2019-03-26T02:51:46.574Z,86.36
2019-03-26T02:52:46.512Z,86.43
2019-03-26T02:53:46.504Z,86.47
2019-03-26T02:54:46.497Z,86.57
2019-03-26T02:55:46.477Z,86.54
2019-03-26T02:56:46.471Z,86.88
2019-03-26T02:57:46.491Z,87.30
2019-03-26T02:58:46.449Z,87.92
2019-03-26T02:59:46.437Z,87.82
2019-03-26T03:00:46.431Z,87.92
2019-03-26T03:01:46.428Z,88.02
2019-03-26T03:02:46.404Z,88.13
2019-03-26T03:03:46.446Z,88.75
2019-03-26T03:04:46.386Z,88.34
2019-03-26T03:05:46.376Z,88.44
2019-03-26T03:06:46.363Z,88.34
2019-03-26T03:07:46.354Z,88.13
2019-03-26T03:08:46.395Z,88.44
2019-03-26T03:09:46.385Z,88.96
2019-03-26T03:10:46.337Z,88.54
2019-03-26T03:11:46.311Z,88.75
2019-03-26T03:12:46.301Z,88.54
2019-03-26T03:13:46.289Z,88.13
2019-03-26T03:14:46.284Z,88.65
2019-03-26T03:15:46.318Z,88.23
2019-03-26T03:16:46.265Z,88.02
2019-03-26T03:17:46.251Z,88.13
2019-03-26T03:18:46.237Z,88.23
2019-03-26T03:19:46.234Z,88.23
2019-03-26T03:20:46.217Z,88.34
2019-03-26T03:21:46.256Z,87.88
2019-03-26T03:22:46.201Z,87.92
2019-03-26T03:23:46.191Z,88.54
2019-03-26T03:24:46.176Z,88.34
2019-03-26T03:25:46.163Z,87.92
2019-03-26T03:26:46.157Z,88.34
2019-03-26T03:27:46.192Z,88.23
2019-03-26T03:28:46.139Z,88.75
2019-03-26T03:29:46.125Z,88.34
2019-03-26T03:30:46.117Z,88.34
2019-03-26T03:31:46.107Z,88.34
2019-03-26T03:32:46.287Z,88.54
2019-03-26T03:33:46.139Z,88.54
2019-03-26T03:34:46.105Z,88.65
2019-03-26T03:35:52.401Z,88.85
2019-03-26T03:36:47.049Z,88.54
2019-03-26T03:37:46.038Z,88.23
2019-03-26T03:38:46.025Z,88.34
2019-03-26T03:39:46.071Z,88.34
2019-03-26T03:40:46.004Z,88.23
2019-03-26T03:41:45.996Z,88.13
2019-03-26T03:42:45.987Z,88.23
2019-03-26T03:43:45.975Z,88.13
2019-03-26T03:44:45.965Z,87.71
2019-03-26T03:45:46.005Z,87.51
2019-03-26T03:46:45.947Z,87.82
2019-03-26T03:47:45.935Z,87.92
2019-03-26T03:48:45.928Z,88.02
2019-03-26T03:49:45.911Z,87.82
2019-03-26T03:50:45.902Z,87.92
2019-03-26T03:51:45.937Z,88.44
2019-03-26T03:52:45.876Z,88.34
2019-03-26T03:53:45.872Z,88.38
2019-03-26T03:54:45.862Z,87.96
2019-03-26T03:55:45.851Z,88.48
2019-03-26T03:56:45.837Z,87.92
2019-03-26T03:57:45.892Z,88.34
2019-03-26T03:58:45.818Z,87.71
2019-03-26T03:59:45.808Z,87.71
2019-03-26T04:00:45.795Z,87.82
2019-03-26T04:01:45.785Z,88.75
2019-03-26T04:02:45.776Z,88.54
2019-03-26T04:03:45.810Z,88.23
2019-03-26T04:04:45.754Z,88.38
2019-03-26T04:05:45.754Z,88.90
2019-03-26T04:06:45.736Z,88.79
2019-03-26T04:07:45.722Z,88.75
2019-03-26T04:08:45.713Z,88.90
2019-03-26T04:09:45.751Z,88.79
2019-03-26T04:10:45.690Z,88.84
2019-03-26T04:11:45.680Z,88.84
2019-03-26T04:12:45.673Z,89.36
2019-03-26T04:13:45.661Z,89.56
2019-03-26T04:14:45.651Z,89.98
2019-03-26T04:15:45.655Z,89.87
2019-03-26T04:16:45.630Z,89.87
2019-03-26T04:17:45.625Z,90.33
2019-03-26T04:18:45.606Z,90.02
2019-03-26T04:19:45.595Z,90.54
2019-03-26T04:20:45.587Z,90.12
2019-03-26T04:21:45.637Z,90.54
2019-03-26T04:22:45.573Z,90.33
2019-03-26T04:23:45.554Z,90.64
2019-03-26T04:24:45.546Z,90.12
2019-03-26T04:25:45.532Z,90.37
2019-03-26T04:26:45.614Z,90.54
2019-03-26T04:27:45.569Z,90.47
2019-03-26T04:28:45.496Z,90.44
2019-03-26T04:29:45.487Z,90.44
2019-03-26T04:30:45.478Z,90.08
2019-03-26T04:31:45.470Z,89.50
2019-03-26T04:32:45.455Z,89.39
2019-03-26T04:33:45.490Z,89.70
2019-03-26T04:34:45.435Z,89.70
2019-03-26T04:35:45.428Z,89.29
2019-03-26T04:36:45.411Z,88.98
2019-03-26T04:37:45.403Z,89.36
2019-03-26T04:38:45.392Z,89.67
2019-03-26T04:39:45.446Z,89.87
2019-03-26T04:40:45.368Z,90.19
2019-03-26T04:41:45.363Z,89.98
2019-03-26T04:42:45.349Z,89.87
2019-03-26T04:43:45.341Z,89.25
2019-03-26T04:44:45.332Z,89.70
2019-03-26T04:45:52.382Z,89.29
2019-03-26T04:46:45.307Z,88.98
2019-03-26T04:47:45.294Z,89.39
2019-03-26T04:48:45.284Z,89.29
2019-03-26T04:49:45.276Z,89.54
2019-03-26T04:50:45.262Z,89.39
2019-03-26T04:51:45.269Z,89.33
2019-03-26T04:52:45.242Z,89.29
2019-03-26T04:53:45.230Z,89.23
2019-03-26T04:54:45.220Z,89.75
2019-03-26T04:55:45.224Z,88.92
2019-03-26T04:56:45.206Z,89.02
2019-03-26T04:57:45.207Z,90.52
2019-03-26T04:58:45.181Z,89.27
2019-03-26T04:59:45.166Z,89.48
2019-03-26T05:00:45.163Z,89.27
2019-03-26T05:01:45.150Z,89.89
2019-03-26T05:02:45.133Z,89.58
2019-03-26T05:03:45.175Z,89.37
2019-03-26T05:04:45.114Z,89.58
2019-03-26T05:05:45.101Z,89.27
2019-03-26T05:06:45.098Z,89.27
2019-03-26T05:07:45.082Z,88.92
2019-03-26T05:08:45.072Z,88.19
2019-03-26T05:09:45.114Z,87.88
2019-03-26T05:10:45.053Z,88.56
2019-03-26T05:11:45.039Z,89.15
2019-03-26T05:12:45.033Z,89.87
2019-03-26T05:13:45.020Z,89.39
2019-03-26T05:14:45.004Z,89.87
2019-03-26T05:15:45.011Z,89.87
2019-03-26T05:16:44.988Z,89.56
2019-03-26T05:17:44.975Z,89.67
2019-03-26T05:18:44.973Z,88.77
2019-03-26T05:19:44.955Z,89.92
2019-03-26T05:20:44.943Z,89.18
2019-03-26T05:21:44.978Z,89.75
2019-03-26T05:22:44.920Z,89.23
2019-03-26T05:23:44.923Z,89.33
2019-03-26T05:24:44.903Z,89.43
2019-03-26T05:25:44.891Z,89.95
2019-03-26T05:26:44.878Z,88.50
2019-03-26T05:27:45.885Z,88.40
2019-03-26T05:28:44.859Z,87.98
2019-03-26T05:29:44.844Z,88.40
2019-03-26T05:30:44.838Z,89.06
2019-03-26T05:31:44.826Z,88.71
2019-03-26T05:32:44.815Z,88.43
2019-03-26T05:33:44.847Z,88.64
2019-03-26T05:34:44.835Z,88.54
2019-03-26T05:35:44.784Z,88.23
2019-03-26T05:36:51.346Z,87.92
2019-03-26T05:37:45.761Z,88.09
2019-03-26T05:38:44.752Z,88.64
2019-03-26T05:39:44.829Z,88.19
2019-03-26T05:40:44.731Z,88.50
2019-03-26T05:41:44.716Z,88.50
2019-03-26T05:42:44.709Z,87.84
2019-03-26T05:43:44.694Z,87.63
2019-03-26T05:44:44.694Z,86.83
2019-03-26T05:45:44.754Z,87.01
2019-03-26T05:46:44.662Z,86.80
2019-03-26T05:47:44.651Z,86.44
2019-03-26T05:48:44.643Z,86.34
2019-03-26T05:49:44.640Z,86.24
2019-03-26T05:50:44.620Z,86.24
2019-03-26T05:51:44.669Z,86.13
2019-03-26T05:52:44.602Z,86.55
2019-03-26T05:53:44.591Z,86.30
2019-03-26T05:54:44.637Z,86.93
2019-03-26T05:55:44.566Z,86.51
2019-03-26T05:56:44.559Z,86.51
2019-03-26T05:57:44.627Z,86.26
2019-03-26T05:58:44.540Z,86.19
2019-03-26T05:59:44.527Z,86.41
2019-03-26T06:00:44.518Z,85.88
2019-03-26T06:01:44.509Z,85.68
2019-03-26T06:02:44.498Z,86.51
2019-03-26T06:03:44.540Z,86.09
2019-03-26T06:04:44.476Z,85.99
2019-03-26T06:05:44.472Z,85.16
2019-03-26T06:06:44.454Z,84.78
2019-03-26T06:07:44.441Z,85.36
2019-03-26T06:08:44.431Z,86.13
2019-03-26T06:09:44.464Z,85.72
2019-03-26T06:10:44.413Z,85.82
2019-03-26T06:11:44.419Z,85.16
2019-03-26T06:12:44.553Z,85.16
2019-03-26T06:13:44.380Z,84.43
2019-03-26T06:14:44.373Z,84.60
2019-03-26T06:15:44.413Z,84.53
2019-03-26T06:16:44.351Z,84.53
2019-03-26T06:17:44.339Z,84.60
2019-03-26T06:18:44.330Z,84.60
2019-03-26T06:19:44.316Z,83.25
2019-03-26T06:20:44.313Z,83.04
2019-03-26T06:21:44.342Z,83.36
2019-03-26T06:22:44.295Z,83.63
2019-03-26T06:23:44.284Z,83.32
2019-03-26T06:24:44.268Z,83.32
2019-03-26T06:25:44.254Z,82.84
2019-03-26T06:26:44.346Z,83.36
2019-03-26T06:27:44.259Z,82.73
2019-03-26T06:28:44.224Z,82.84
2019-03-26T06:29:44.212Z,82.63
2019-03-26T06:30:44.202Z,83.56
2019-03-26T06:31:44.190Z,83.53
2019-03-26T06:32:44.176Z,82.76
2019-03-26T06:33:44.223Z,81.93
2019-03-26T06:34:44.161Z,82.24
2019-03-26T06:35:44.148Z,82.34
2019-03-26T06:36:44.166Z,80.79
2019-03-26T06:37:44.128Z,82.14
2019-03-26T06:38:44.124Z,81.30
2019-03-26T06:39:44.154Z,80.79
2019-03-26T06:40:44.097Z,79.82
2019-03-26T06:41:44.090Z,79.41
2019-03-26T06:42:44.078Z,79.20
2019-03-26T06:43:44.065Z,80.61
2019-03-26T06:44:44.061Z,79.27
2019-03-26T06:45:44.093Z,80.19
2019-03-26T06:46:44.033Z,77.88
2019-03-26T06:47:44.026Z,77.57
2019-03-26T06:48:44.014Z,77.78
2019-03-26T06:49:44.010Z,77.57
2019-03-26T06:50:43.988Z,77.61
2019-03-26T06:51:44.033Z,77.67
2019-03-26T06:52:43.966Z,77.15
2019-03-26T06:53:43.965Z,77.78
2019-03-26T06:54:43.954Z,77.05
2019-03-26T06:55:43.940Z,77.05
2019-03-26T06:56:43.931Z,76.23
2019-03-26T06:57:44.028Z,76.12
2019-03-26T06:58:43.906Z,76.84
2019-03-26T06:59:43.895Z,76.12
2019-03-26T07:00:43.885Z,75.98
2019-03-26T07:01:43.879Z,75.57
2019-03-26T07:02:43.866Z,75.78
2019-03-26T07:03:43.869Z,75.63
2019-03-26T07:04:43.841Z,74.29
2019-03-26T07:05:43.838Z,74.60
2019-03-26T07:06:43.822Z,74.53
2019-03-26T07:07:43.814Z,72.85
2019-03-26T07:08:43.801Z,71.50
2019-03-26T07:09:43.847Z,70.26
2019-03-26T07:10:43.778Z,70.12
2019-03-26T07:11:43.768Z,70.64
2019-03-26T07:12:43.757Z,69.71
2019-03-26T07:13:43.746Z,70.09
2019-03-26T07:14:43.730Z,70.23
2019-03-26T07:15:43.776Z,70.03
2019-03-26T07:16:43.714Z,70.23
2019-03-26T07:17:43.708Z,70.75
2019-03-26T07:18:43.698Z,69.78
2019-03-26T07:19:43.687Z,66.63
2019-03-26T07:20:43.674Z,66.83
2019-03-26T07:21:49.565Z,67.73
2019-03-26T07:22:44.645Z,66.66
2019-03-26T07:23:43.641Z,66.66
2019-03-26T07:24:43.635Z,66.63
2019-03-26T07:25:43.627Z,65.70
2019-03-26T07:26:43.605Z,65.36
2019-03-26T07:27:43.619Z,65.22
2019-03-26T07:28:43.589Z,64.44
2019-03-26T07:29:43.579Z,61.92
2019-03-26T07:30:43.564Z,54.28
2019-03-26T07:31:43.557Z,52.91
2019-03-26T07:32:43.545Z,49.85
2019-03-26T07:33:43.579Z,49.69
2019-03-26T07:34:43.521Z,51.34
2019-03-26T07:35:43.515Z,51.32
2019-03-26T07:36:43.503Z,48.34
2019-03-26T07:37:45.629Z,48.90
2019-03-26T07:38:43.480Z,47.16
2019-03-26T07:39:43.490Z,47.55
2019-03-26T07:40:43.462Z,45.76
2019-03-26T07:41:43.445Z,48.67
2019-03-26T07:42:43.432Z,52.74
2019-03-26T07:43:43.425Z,51.41
2019-03-26T07:44:45.417Z,53.33
2019-03-26T07:45:43.454Z,48.85
2019-03-26T07:46:43.396Z,44.20
2019-03-26T07:47:43.391Z,42.91
2019-03-26T07:48:43.372Z,47.38
2019-03-26T07:49:43.364Z,50.20
2019-03-26T07:50:43.527Z,49.30
2019-03-26T07:51:43.390Z,50.63
2019-03-26T07:52:43.326Z,48.71
2019-03-26T07:53:43.322Z,50.86
2019-03-26T07:54:43.306Z,50.14
2019-03-26T07:55:44.000Z,50.56
2019-03-26T07:56:43.292Z,49.17
2019-03-26T07:57:43.326Z,47.13
2019-03-26T07:58:43.281Z,44.23
2019-03-26T07:59:43.255Z,46.31
2019-03-26T08:00:43.242Z,46.28
2019-03-26T08:01:43.232Z,48.22
2019-03-26T08:02:43.225Z,47.20
2019-03-26T08:03:43.261Z,45.70
2019-03-26T08:04:43.205Z,46.09
2019-03-26T08:05:43.187Z,44.70
2019-03-26T08:06:43.183Z,42.43
2019-03-26T08:07:43.169Z,40.50
2019-03-26T08:08:43.153Z,42.04
2019-03-26T08:09:43.193Z,39.86
2019-03-26T08:10:43.133Z,39.64
2019-03-26T08:11:43.120Z,38.90
2019-03-26T08:12:43.177Z,40.01
2019-03-26T08:13:43.138Z,40.80
2019-03-26T08:14:43.113Z,40.76
2019-03-26T08:15:43.126Z,37.48
2019-03-26T08:16:43.097Z,39.92
2019-03-26T08:17:45.253Z,39.11
2019-03-26T08:18:43.052Z,41.73
2019-03-26T08:19:43.040Z,43.61
2019-03-26T08:20:43.026Z,44.65
2019-03-26T08:21:43.061Z,44.53
2019-03-26T08:22:43.004Z,40.95
2019-03-26T08:23:42.995Z,41.38
2019-03-26T08:24:42.985Z,41.53
2019-03-26T08:25:42.980Z,38.48
2019-03-26T08:26:42.969Z,39.67
2019-03-26T08:27:43.007Z,40.00
2019-03-26T08:28:42.944Z,40.10
2019-03-26T08:29:42.934Z,40.67
2019-03-26T08:30:42.918Z,41.93
2019-03-26T08:31:42.911Z,45.23
2019-03-26T08:32:42.902Z,46.40
2019-03-26T08:33:42.942Z,44.70
2019-03-26T08:34:42.894Z,44.62
2019-03-26T08:35:42.867Z,43.91
2019-03-26T08:36:42.851Z,45.58
2019-03-26T08:37:42.841Z,48.71
2019-03-26T08:38:42.831Z,47.99
2019-03-26T08:39:42.836Z,49.11
2019-03-26T08:40:42.812Z,48.80
2019-03-26T08:41:42.799Z,50.41
2019-03-26T08:42:42.795Z,50.70
2019-03-26T08:43:42.777Z,50.11
2019-03-26T08:44:42.770Z,45.37
2019-03-26T08:45:42.773Z,46.63
2019-03-26T08:46:45.986Z,48.07
2019-03-26T08:47:42.735Z,49.02
2019-03-26T08:48:42.722Z,50.05
2019-03-26T08:49:42.713Z,49.10
2019-03-26T08:50:42.706Z,48.98
2019-03-26T08:51:42.713Z,47.72
2019-03-26T08:52:42.687Z,48.63
2019-03-26T08:53:42.670Z,48.03
2019-03-26T08:54:42.658Z,46.48
2019-03-26T08:55:42.649Z,47.48
2019-03-26T08:56:42.649Z,49.05
2019-03-26T08:57:42.645Z,49.05
2019-03-26T08:58:42.615Z,48.61
2019-03-26T08:59:42.606Z,48.33
2019-03-26T09:00:42.639Z,49.17
2019-03-26T09:01:42.589Z,48.94
2019-03-26T09:02:42.573Z,49.05
2019-03-26T09:03:42.587Z,48.18
2019-03-26T09:04:42.553Z,47.56
2019-03-26T09:05:42.542Z,47.99
2019-03-26T09:06:42.528Z,50.26
2019-03-26T09:07:42.518Z,49.00
2019-03-26T09:08:42.512Z,49.10
2019-03-26T09:09:42.528Z,48.67
2019-03-26T09:10:51.756Z,47.85
2019-03-26T09:11:43.477Z,48.28
2019-03-26T09:12:42.464Z,48.90
2019-03-26T09:13:42.458Z,50.52
2019-03-26T09:14:42.442Z,48.64
2019-03-26T09:15:42.459Z,42.38
2019-03-26T09:16:42.423Z,44.08
2019-03-26T09:17:44.365Z,45.09
2019-03-26T09:18:42.398Z,44.49
2019-03-26T09:19:42.401Z,44.57
2019-03-26T09:20:42.379Z,43.59
2019-03-26T09:21:42.385Z,44.23
2019-03-26T09:22:42.362Z,45.09
2019-03-26T09:23:42.347Z,45.54
2019-03-26T09:24:42.334Z,45.34
2019-03-26T09:25:42.330Z,46.28
2019-03-26T09:26:42.324Z,47.45
2019-03-26T09:27:42.331Z,47.64
2019-03-26T09:28:42.292Z,47.52
2019-03-26T09:29:42.286Z,45.87
2019-03-26T09:30:42.276Z,46.90
2019-03-26T09:31:42.264Z,46.48
2019-03-26T09:32:42.257Z,46.59
2019-03-26T09:33:42.257Z,47.11
2019-03-26T09:34:42.226Z,46.51
2019-03-26T09:35:42.219Z,47.23
2019-03-26T09:36:42.206Z,47.52
2019-03-26T09:37:42.200Z,47.72
2019-03-26T09:38:42.186Z,47.19
2019-03-26T09:39:42.199Z,46.69
2019-03-26T09:40:42.166Z,48.24
2019-03-26T09:41:42.156Z,47.41
2019-03-26T09:42:42.146Z,47.74
2019-03-26T09:43:42.133Z,48.03
2019-03-26T09:44:42.124Z,48.85
2019-03-26T09:45:42.130Z,47.92
2019-03-26T09:46:42.104Z,48.83
2019-03-26T09:47:42.091Z,47.96
2019-03-26T09:48:42.082Z,46.44
2019-03-26T09:49:42.075Z,46.06
2019-03-26T09:50:42.053Z,46.26
2019-03-26T09:51:42.066Z,46.01
2019-03-26T09:52:42.034Z,44.74
2019-03-26T09:53:42.028Z,41.87
2019-03-26T09:54:42.011Z,40.89
2019-03-26T09:55:42.002Z,40.78
2019-03-26T09:56:42.000Z,42.40
2019-03-26T09:57:41.999Z,43.63
2019-03-26T09:58:41.981Z,44.24
2019-03-26T09:59:41.972Z,43.67
2019-03-26T10:00:42.105Z,44.70
2019-03-26T10:01:41.941Z,44.57
2019-03-26T10:02:43.463Z,44.35
2019-03-26T10:03:41.941Z,44.06
2019-03-26T10:04:41.909Z,44.70
2019-03-26T10:05:41.889Z,44.26
2019-03-26T10:06:41.890Z,44.80
2019-03-26T10:07:41.883Z,45.68
2019-03-26T10:08:51.757Z,44.17
2019-03-26T10:09:42.866Z,45.91
2019-03-26T10:10:41.840Z,45.10
2019-03-26T10:11:41.833Z,44.12
2019-03-26T10:12:41.820Z,44.76
2019-03-26T10:13:41.808Z,45.87
2019-03-26T10:14:41.798Z,45.13
2019-03-26T10:15:41.804Z,44.00
2019-03-26T10:16:41.775Z,43.77
2019-03-26T10:17:41.769Z,42.86
2019-03-26T10:18:41.756Z,42.46
2019-03-26T10:19:41.744Z,43.48
2019-03-26T10:20:41.737Z,43.38
2019-03-26T10:21:41.750Z,42.46
2019-03-26T10:22:41.712Z,42.25
2019-03-26T10:23:41.709Z,42.77
2019-03-26T10:24:41.689Z,43.52
2019-03-26T10:25:41.683Z,43.73
2019-03-26T10:26:41.670Z,42.52
2019-03-26T10:27:41.682Z,37.07
2019-03-26T10:28:41.657Z,36.02
2019-03-26T10:29:41.639Z,34.53
2019-03-26T10:30:41.625Z,33.20
2019-03-26T10:31:41.616Z,34.63
2019-03-26T10:32:41.611Z,34.20
2019-03-26T10:33:41.610Z,33.15
2019-03-26T10:34:41.588Z,34.03
2019-03-26T10:35:41.572Z,32.69
2019-03-26T10:36:41.812Z,32.42
2019-03-26T10:37:41.552Z,33.91
2019-03-26T10:38:41.542Z,33.96
2019-03-26T10:39:41.552Z,33.03
2019-03-26T10:40:41.517Z,33.07
2019-03-26T10:41:41.506Z,32.56
2019-03-26T10:42:41.502Z,31.63
2019-03-26T10:43:41.487Z,32.23
2019-03-26T10:44:41.476Z,33.47
2019-03-26T10:45:41.482Z,32.48
2019-03-26T10:46:48.499Z,33.28
2019-03-26T10:47:41.443Z,32.84
2019-03-26T10:48:41.447Z,31.93
2019-03-26T10:49:41.420Z,32.96
2019-03-26T10:50:41.439Z,33.06
2019-03-26T10:51:41.414Z,33.09
2019-03-26T10:52:41.423Z,32.68
2019-03-26T10:53:41.375Z,32.56
2019-03-26T10:54:41.369Z,32.06
2019-03-26T10:55:41.377Z,32.26
2019-03-26T10:56:41.356Z,32.26
2019-03-26T10:57:41.381Z,32.48
2019-03-26T10:58:41.325Z,32.56
2019-03-26T10:59:41.321Z,33.99
2019-03-26T11:00:41.311Z,32.74
2019-03-26T11:01:41.294Z,33.52
2019-03-26T11:02:41.304Z,31.77
2019-03-26T11:03:41.285Z,31.74
2019-03-26T11:04:41.260Z,30.70
2019-03-26T11:05:41.253Z,29.80
2019-03-26T11:06:41.244Z,28.99
2019-03-26T11:07:42.678Z,31.48
2019-03-26T11:08:41.220Z,28.83
2019-03-26T11:09:41.222Z,30.90
2019-03-26T11:10:41.194Z,30.55
2019-03-26T11:11:41.184Z,32.07
2019-03-26T11:12:41.179Z,30.63
2019-03-26T11:13:41.346Z,30.26
2019-03-26T11:14:41.175Z,27.34
2019-03-26T11:15:41.156Z,29.02
2019-03-26T11:16:41.133Z,28.31
2019-03-26T11:17:41.665Z,28.52
2019-03-26T11:18:41.136Z,29.06
2019-03-26T11:19:41.104Z,30.29
2019-03-26T11:20:41.098Z,28.89
2019-03-26T11:21:41.103Z,28.73
2019-03-26T11:22:41.072Z,29.13
2019-03-26T11:23:41.056Z,30.16
2019-03-26T11:24:41.050Z,31.77
2019-03-26T11:25:41.055Z,31.34
2019-03-26T11:26:41.033Z,31.85
2019-03-26T11:27:41.060Z,33.84
2019-03-26T11:28:41.027Z,34.74
2019-03-26T11:29:41.009Z,33.65
2019-03-26T11:30:40.991Z,34.50
2019-03-26T11:31:40.983Z,34.28
2019-03-26T11:32:40.965Z,35.44
2019-03-26T11:33:40.969Z,34.74
2019-03-26T11:34:40.943Z,34.25
2019-03-26T11:35:40.937Z,33.81
2019-03-26T11:36:40.937Z,32.48
2019-03-26T11:37:40.947Z,33.09
2019-03-26T11:38:40.902Z,32.26
2019-03-26T11:39:40.905Z,31.60
2019-03-26T11:40:40.882Z,33.87
2019-03-26T11:41:40.870Z,34.93
2019-03-26T11:42:40.946Z,33.50
2019-03-26T11:43:40.854Z,33.95
2019-03-26T11:44:40.839Z,35.59
2019-03-26T11:45:40.847Z,33.51
2019-03-26T11:46:40.815Z,34.16
2019-03-26T11:47:40.814Z,34.88
2019-03-26T11:48:40.815Z,35.22
2019-03-26T11:49:40.783Z,35.01
2019-03-26T11:50:40.773Z,35.93
2019-03-26T11:51:40.776Z,35.01
2019-03-26T11:52:40.755Z,35.76
2019-03-26T11:53:40.761Z,34.89
2019-03-26T11:54:40.748Z,34.42
2019-03-26T11:55:40.766Z,32.17
2019-03-26T11:56:40.737Z,30.15
2019-03-26T11:57:40.718Z,28.02
2019-03-26T11:58:40.690Z,30.29
2019-03-26T11:59:40.674Z,27.99
2019-03-26T12:00:40.670Z,30.41
2019-03-26T12:01:40.667Z,31.95
2019-03-26T12:02:40.648Z,28.71
2019-03-26T12:03:40.645Z,30.38
2019-03-26T12:04:40.686Z,28.82
2019-03-26T12:05:40.610Z,28.01
2019-03-26T12:06:40.609Z,29.02
2019-03-26T12:07:42.904Z,29.58
2019-03-26T12:08:40.577Z,29.41
2019-03-26T12:09:46.104Z,29.69
2019-03-26T12:10:41.557Z,32.81
2019-03-26T12:11:40.556Z,32.72
2019-03-26T12:12:40.548Z,33.16
2019-03-26T12:13:40.532Z,31.13
2019-03-26T12:14:40.525Z,31.44
2019-03-26T12:15:40.516Z,32.01
2019-03-26T12:16:40.538Z,33.65
2019-03-26T12:17:40.487Z,33.18
2019-03-26T12:18:40.486Z,33.91
2019-03-26T12:19:40.506Z,33.92
2019-03-26T12:20:40.449Z,34.28
2019-03-26T12:21:40.461Z,36.05
2019-03-26T12:22:40.439Z,36.27
2019-03-26T12:23:40.449Z,36.27
2019-03-26T12:24:40.404Z,36.49
2019-03-26T12:25:40.402Z,37.09
2019-03-26T12:26:40.396Z,34.50
2019-03-26T12:27:40.413Z,34.79
2019-03-26T12:28:40.366Z,35.18
2019-03-26T12:29:40.352Z,34.98
2019-03-26T12:30:40.340Z,36.40
2019-03-26T12:31:40.331Z,33.83
2019-03-26T12:32:41.024Z,31.37
2019-03-26T12:33:40.327Z,32.59
2019-03-26T12:34:40.298Z,33.54
2019-03-26T12:35:40.293Z,32.12
2019-03-26T12:36:40.513Z,34.06
2019-03-26T12:37:40.267Z,33.45
2019-03-26T12:38:40.275Z,33.69
2019-03-26T12:39:40.272Z,30.76
2019-03-26T12:40:40.229Z,31.92
2019-03-26T12:41:40.236Z,33.06
2019-03-26T12:42:40.217Z,33.18
2019-03-26T12:43:40.198Z,34.72
2019-03-26T12:44:40.194Z,36.46
2019-03-26T12:45:40.205Z,34.72
2019-03-26T12:46:40.169Z,34.50
2019-03-26T12:47:40.164Z,33.81
2019-03-26T12:48:40.145Z,32.71
2019-03-26T12:49:40.139Z,31.70
2019-03-26T12:50:40.123Z,28.60
2019-03-26T12:51:40.155Z,28.38
2019-03-26T12:52:40.115Z,28.45